Time;durP1;ratioP1;P1;durP2;ratioP2;P2;SDS_P1;SDS_P2;PMS_P1;PMS_P2;Temp;Humidity;BMP_temperature;BMP_pressure;BME280_temperature;BME280_humidity;BME280_pressure;Samples;Min_cycle;Max_cycle;Signal;HPM_P1;HPM_P2
2021/08/23 00:01:09;;;;;;;1.40;1.30;;;24.60;66.10;;;;;;5083575;28;20267;-68
2021/08/23 00:03:37;;;;;;;1.67;1.50;;;24.60;66.10;;;;;;5083210;28;20198;-68
2021/08/23 00:06:07;;;;;;;1.53;1.40;;;24.60;66.10;;;;;;5092911;28;20713;-68
2021/08/23 00:08:36;;;;;;;1.63;1.53;;;24.60;66.00;;;;;;5081952;28;20197;-69
2021/08/23 00:11:06;;;;;;;2.07;1.70;;;24.60;66.00;;;;;;5090395;28;20216;-67
2021/08/23 00:13:50;;;;;;;1.70;1.60;;;24.60;66.10;;;;;;5091209;28;20276;-68
2021/08/23 00:16:29;;;;;;;1.40;1.30;;;24.60;66.00;;;;;;5071218;28;20263;-69
2021/08/23 00:18:59;;;;;;;1.47;1.37;;;24.60;66.00;;;;;;5071520;28;20654;-68
2021/08/23 00:21:29;;;;;;;1.50;1.40;;;24.60;66.00;;;;;;5092592;28;20243;-68
2021/08/23 00:24:07;;;;;;;1.93;1.60;;;24.60;65.90;;;;;;5074014;28;20235;-68
2021/08/23 00:26:40;;;;;;;1.50;1.40;;;24.60;66.00;;;;;;5089317;28;20205;-68
2021/08/23 00:29:10;;;;;;;1.67;1.57;;;24.50;65.90;;;;;;5097335;28;20214;-68
2021/08/23 00:31:42;;;;;;;1.60;1.50;;;24.50;65.90;;;;;;5091489;28;20196;-69
2021/08/23 00:34:14;;;;;;;1.43;1.33;;;24.50;65.90;;;;;;5105349;28;20196;-68
2021/08/23 00:36:45;;;;;;;2.53;1.23;;;24.60;65.90;;;;;;5089415;28;20192;-68
2021/08/23 00:39:15;;;;;;;1.70;1.60;;;24.50;65.90;;;;;;5091167;28;20213;-68
2021/08/23 00:41:47;;;;;;;1.47;1.37;;;24.50;65.70;;;;;;5078960;28;20189;-68
2021/08/23 00:44:17;;;;;;;1.60;1.50;;;24.50;65.70;;;;;;5105463;28;20231;-68
2021/08/23 00:46:48;;;;;;;1.50;1.40;;;24.50;65.80;;;;;;5095315;28;20302;-67
2021/08/23 00:49:24;;;;;;;1.50;1.40;;;24.50;65.90;;;;;;5056613;28;20482;-69
2021/08/23 00:51:59;;;;;;;1.40;1.30;;;24.50;65.70;;;;;;5075537;28;20276;-68
2021/08/23 00:54:28;;;;;;;1.60;1.50;;;24.50;65.80;;;;;;5076684;28;20213;-68
2021/08/23 00:57:01;;;;;;;1.37;1.27;;;24.50;65.80;;;;;;5101271;28;20204;-67
2021/08/23 00:59:39;;;;;;;2.67;1.50;;;24.50;65.70;;;;;;5086457;28;20189;-67
2021/08/23 01:02:54;;;;;;;1.40;1.30;;;24.50;65.60;;;;;;5063436;28;20200;-68
2021/08/23 01:05:37;;;;;;;1.43;1.33;;;24.50;65.80;;;;;;5083048;28;20204;-68
2021/08/23 01:08:34;;;;;;;1.63;1.53;;;24.50;65.70;;;;;;5106596;28;20204;-68
2021/08/23 01:11:15;;;;;;;1.50;1.40;;;24.50;65.80;;;;;;5093106;28;20258;-68
2021/08/23 01:13:50;;;;;;;1.63;1.47;;;24.50;65.80;;;;;;5100454;28;20199;-69
2021/08/23 01:16:18;;;;;;;1.40;1.30;;;24.50;65.80;;;;;;5099022;28;20204;-68
2021/08/23 01:18:50;;;;;;;1.30;1.20;;;24.50;65.70;;;;;;5087861;28;20185;-69
2021/08/23 01:21:25;;;;;;;1.67;1.57;;;24.50;65.60;;;;;;5104330;27;20209;-68
2021/08/23 01:24:08;;;;;;;1.67;1.57;;;24.50;65.80;;;;;;5068066;28;20316;-68
2021/08/23 01:26:43;;;;;;;1.60;1.50;;;24.50;65.80;;;;;;5090914;28;20257;-69
2021/08/23 01:29:26;;;;;;;1.50;1.40;;;24.40;65.80;;;;;;5079042;28;20201;-68
2021/08/23 01:32:16;;;;;;;1.60;1.50;;;24.40;65.70;;;;;;5105191;28;20266;-68
2021/08/23 01:34:50;;;;;;;1.50;1.40;;;24.50;65.80;;;;;;5106847;28;20200;-68
2021/08/23 01:37:21;;;;;;;1.40;1.30;;;24.40;65.80;;;;;;5102267;28;20197;-68
2021/08/23 01:39:51;;;;;;;1.60;1.50;;;24.40;65.80;;;;;;5072688;28;20200;-68
2021/08/23 01:42:21;;;;;;;1.50;1.40;;;24.40;65.60;;;;;;5079608;28;20213;-68
2021/08/23 01:44:54;;;;;;;1.57;1.47;;;24.40;65.70;;;;;;5097469;28;20225;-69
2021/08/23 01:47:25;;;;;;;1.60;1.50;;;24.50;65.80;;;;;;5091389;28;20238;-67
2021/08/23 01:49:57;;;;;;;1.73;1.57;;;24.40;65.70;;;;;;5103621;28;20207;-68
2021/08/23 01:52:30;;;;;;;1.43;1.33;;;24.40;65.70;;;;;;5079693;28;20193;-68
2021/08/23 01:55:01;;;;;;;2.30;1.63;;;24.40;65.70;;;;;;5105696;28;20541;-68
2021/08/23 01:57:32;;;;;;;1.77;1.67;;;24.40;65.70;;;;;;5109494;28;20196;-68
2021/08/23 02:00:04;;;;;;;1.50;1.40;;;24.40;65.70;;;;;;5104696;28;20196;-68
2021/08/23 02:02:38;;;;;;;1.60;1.50;;;24.40;65.60;;;;;;5080453;28;20639;-67
2021/08/23 02:05:10;;;;;;;1.57;1.47;;;24.40;65.60;;;;;;5103464;28;20204;-68
2021/08/23 02:07:40;;;;;;;1.20;1.10;;;24.40;65.60;;;;;;5094230;28;20598;-68
2021/08/23 02:10:10;;;;;;;1.50;1.40;;;24.40;65.50;;;;;;5086035;28;20210;-68
2021/08/23 02:12:41;;;;;;;1.53;1.40;;;24.40;65.60;;;;;;5102440;28;20192;-68
2021/08/23 02:15:11;;;;;;;2.07;1.40;;;24.40;65.60;;;;;;5093783;28;20638;-69
2021/08/23 02:17:40;;;;;;;1.70;1.60;;;24.40;65.60;;;;;;5098675;28;20189;-68
2021/08/23 02:20:14;;;;;;;1.67;1.57;;;24.40;65.50;;;;;;5094768;28;20508;-68
2021/08/23 02:22:43;;;;;;;1.40;1.30;;;24.40;65.60;;;;;;5098387;28;20231;-68
2021/08/23 02:25:11;;;;;;;1.77;1.60;;;24.40;65.50;;;;;;5072546;28;20189;-68
2021/08/23 02:27:43;;;;;;;1.50;1.40;;;24.40;65.50;;;;;;5107233;28;20219;-68
2021/08/23 02:30:15;;;;;;;1.47;1.37;;;24.40;66.10;;;;;;5108229;28;20535;-69
2021/08/23 02:32:45;;;;;;;1.57;1.47;;;24.40;65.50;;;;;;5110934;28;20369;-68
2021/08/23 02:35:15;;;;;;;1.40;1.30;;;24.40;65.40;;;;;;5085875;27;20210;-67
2021/08/23 02:37:44;;;;;;;1.47;1.37;;;24.40;65.30;;;;;;5086986;28;20212;-67
2021/08/23 02:40:18;;;;;;;1.53;1.43;;;24.40;65.40;;;;;;5083132;28;20203;-67
2021/08/23 02:42:46;;;;;;;1.50;1.40;;;24.40;65.40;;;;;;5107872;27;20684;-68
2021/08/23 02:45:22;;;;;;;1.50;1.40;;;24.40;65.30;;;;;;5084673;28;20362;-68
2021/08/23 02:47:51;;;;;;;1.70;1.53;;;24.40;65.30;;;;;;5101107;27;20252;-67
2021/08/23 02:50:20;;;;;;;1.50;1.40;;;24.40;65.30;;;;;;5089517;28;20411;-67
2021/08/23 02:52:51;;;;;;;1.90;1.60;;;24.40;65.30;;;;;;5089396;28;20193;-68
2021/08/23 02:55:23;;;;;;;1.40;1.30;;;24.40;65.30;;;;;;5077400;28;20410;-68
2021/08/23 02:57:54;;;;;;;1.53;1.43;;;24.40;65.30;;;;;;5108007;28;20192;-67
2021/08/23 03:00:23;;;;;;;1.60;1.50;;;24.40;65.30;;;;;;5107371;27;20253;-68
2021/08/23 03:03:01;;;;;;;1.50;1.27;;;24.40;65.20;;;;;;5113675;27;20657;-68
2021/08/23 03:05:33;;;;;;;1.57;1.47;;;24.40;65.20;;;;;;5107760;27;20272;-68
2021/08/23 03:08:02;;;;;;;1.60;1.50;;;24.40;65.20;;;;;;5091854;28;20222;-68
2021/08/23 03:10:35;;;;;;;2.03;1.70;;;24.30;65.10;;;;;;5107490;28;20245;-67
2021/08/23 03:13:18;;;;;;;1.50;1.40;;;24.30;65.10;;;;;;5104104;28;20223;-67
2021/08/23 03:15:48;;;;;;;1.60;1.50;;;24.40;65.20;;;;;;5108876;28;20196;-68
2021/08/23 03:18:32;;;;;;;1.67;1.57;;;24.40;65.30;;;;;;5096525;28;20287;-68
2021/08/23 03:21:05;;;;;;;1.33;1.23;;;24.40;65.20;;;;;;5085087;28;20283;-68
2021/08/23 03:23:33;;;;;;;1.40;1.30;;;24.40;65.30;;;;;;5102260;28;20232;-68
2021/08/23 03:26:08;;;;;;;1.77;1.67;;;24.30;65.10;;;;;;5089971;28;20468;-68
2021/08/23 03:28:37;;;;;;;1.50;1.40;;;24.30;65.20;;;;;;5104734;28;20200;-68
2021/08/23 03:31:08;;;;;;;1.50;1.40;;;24.30;65.10;;;;;;5105048;28;20231;-68
2021/08/23 03:33:40;;;;;;;1.60;1.50;;;24.40;65.20;;;;;;5110516;27;20648;-68
2021/08/23 03:36:10;;;;;;;1.50;1.40;;;24.30;65.10;;;;;;5103715;28;20585;-68
2021/08/23 03:38:42;;;;;;;1.63;1.53;;;24.30;65.10;;;;;;5107901;28;20189;-68
2021/08/23 03:41:23;;;;;;;1.77;1.47;;;24.30;65.10;;;;;;5094800;28;20614;-68
2021/08/23 03:43:52;;;;;;;1.57;1.47;;;24.30;65.00;;;;;;5104013;28;20660;-67
2021/08/23 03:46:23;;;;;;;2.47;1.60;;;24.30;65.00;;;;;;5104269;28;20236;-68
2021/08/23 03:48:59;;;;;;;1.40;1.30;;;24.30;65.10;;;;;;5110315;28;20544;-68
2021/08/23 03:51:27;;;;;;;1.50;1.40;;;24.30;65.10;;;;;;5094389;28;20204;-68
2021/08/23 03:53:58;;;;;;;1.50;1.40;;;24.30;65.10;;;;;;5082648;28;20270;-68
2021/08/23 03:56:28;;;;;;;1.60;1.50;;;24.30;65.00;;;;;;5086044;28;20277;-68
2021/08/23 03:58:58;;;;;;;1.70;1.60;;;24.30;65.00;;;;;;5097548;28;20547;-68
2021/08/23 04:01:30;;;;;;;2.00;1.80;;;24.30;65.00;;;;;;5079065;28;20212;-67
2021/08/23 04:04:01;;;;;;;1.73;1.63;;;24.30;64.90;;;;;;5100392;27;20188;-67
2021/08/23 04:06:30;;;;;;;1.70;1.60;;;24.30;64.90;;;;;;5109701;27;20239;-67
2021/08/23 04:08:59;;;;;;;1.70;1.60;;;24.30;64.80;;;;;;5086630;28;20208;-68
2021/08/23 04:11:35;;;;;;;1.60;1.50;;;24.30;64.80;;;;;;5108391;28;20196;-68
2021/08/23 04:14:12;;;;;;;1.60;1.50;;;24.30;64.80;;;;;;5096425;28;20228;-68
2021/08/23 04:16:43;;;;;;;1.57;1.47;;;24.30;64.80;;;;;;5104851;28;20677;-67
2021/08/23 04:19:13;;;;;;;2.63;1.60;;;24.30;64.80;;;;;;5098091;28;20311;-68
2021/08/23 04:21:44;;;;;;;1.70;1.60;;;24.30;64.80;;;;;;5102194;28;20281;-68
2021/08/23 04:24:13;;;;;;;3.47;1.90;;;24.30;64.80;;;;;;5101925;27;20250;-67
2021/08/23 04:26:43;;;;;;;1.70;1.60;;;24.30;64.70;;;;;;5102340;28;20265;-66
2021/08/23 04:29:15;;;;;;;1.87;1.77;;;24.30;64.60;;;;;;5103409;28;20845;-67
2021/08/23 04:31:45;;;;;;;1.63;1.53;;;24.30;64.60;;;;;;5119282;28;20614;-66
2021/08/23 04:34:14;;;;;;;1.90;1.80;;;24.20;64.60;;;;;;5080512;28;20199;-67
2021/08/23 04:36:45;;;;;;;1.60;1.50;;;24.20;64.70;;;;;;5076249;28;20198;-66
2021/08/23 04:39:20;;;;;;;1.73;1.63;;;24.30;64.70;;;;;;5093806;27;20219;-66
2021/08/23 04:41:49;;;;;;;1.80;1.70;;;24.30;64.60;;;;;;5115462;27;20211;-66
2021/08/23 04:44:17;;;;;;;2.10;2.00;;;24.30;64.60;;;;;;5103294;28;20642;-65
2021/08/23 04:46:49;;;;;;;1.90;1.80;;;24.30;65.30;;;;;;5076066;27;20212;-65
2021/08/23 04:52:28;;;;;;;1.90;1.70;;;24.30;64.60;;;;;;5100618;28;20279;-66
2021/08/23 04:55:00;;;;;;;2.43;1.70;;;24.20;64.60;;;;;;5103462;27;20674;-66
2021/08/23 04:57:31;;;;;;;2.00;1.90;;;24.20;64.60;;;;;;5109376;27;20214;-66
2021/08/23 05:00:07;;;;;;;1.73;1.63;;;24.20;64.50;;;;;;5107862;27;20218;-66
2021/08/23 05:02:38;;;;;;;1.93;1.83;;;24.20;64.50;;;;;;5092273;28;20659;-66
2021/08/23 05:05:08;;;;;;;1.87;1.77;;;24.30;64.60;;;;;;5082273;28;20239;-66
2021/08/23 05:07:41;;;;;;;2.40;2.20;;;24.20;64.60;;;;;;5109561;28;20235;-66
2021/08/23 05:10:12;;;;;;;1.93;1.83;;;24.20;64.50;;;;;;5102510;28;20328;-66
2021/08/23 05:12:45;;;;;;;1.77;1.67;;;24.20;64.50;;;;;;5088406;27;20213;-67
2021/08/23 05:15:13;;;;;;;2.10;1.90;;;24.30;64.50;;;;;;5090796;28;20211;-67
2021/08/23 05:17:43;;;;;;;1.93;1.83;;;24.20;64.50;;;;;;5109975;27;20195;-67
2021/08/23 05:20:14;;;;;;;2.17;2.00;;;24.20;64.40;;;;;;5108890;27;20648;-67
2021/08/23 05:22:43;;;;;;;1.90;1.80;;;24.20;64.50;;;;;;5095421;28;20734;-67
2021/08/23 05:25:15;;;;;;;2.83;2.00;;;24.20;64.40;;;;;;5095360;28;20258;-67
2021/08/23 05:27:48;;;;;;;2.20;2.00;;;24.20;64.40;;;;;;5104528;28;20219;-67
2021/08/23 05:30:19;;;;;;;2.33;2.13;;;24.20;64.40;;;;;;5101104;28;20212;-66
2021/08/23 05:32:50;;;;;;;2.33;2.13;;;24.20;64.40;;;;;;5110897;27;20514;-65
2021/08/23 05:35:19;;;;;;;2.47;2.27;;;24.20;64.40;;;;;;5108686;28;20204;-66
2021/08/23 05:37:49;;;;;;;3.23;2.07;;;24.20;64.40;;;;;;5097174;28;20665;-67
2021/08/23 05:40:29;;;;;;;2.13;2.03;;;24.20;64.40;;;;;;5107221;28;20639;-66
2021/08/23 05:43:02;;;;;;;2.37;2.17;;;24.20;64.40;;;;;;5078037;28;20204;-65
2021/08/23 05:45:33;;;;;;;2.57;2.30;;;24.20;65.10;;;;;;5109961;27;20229;-66
2021/08/23 05:48:05;;;;;;;2.53;2.33;;;24.20;64.30;;;;;;5090461;28;20220;-66
2021/08/23 05:50:36;;;;;;;2.50;2.30;;;24.20;64.40;;;;;;5108837;27;20225;-66
2021/08/23 05:53:04;;;;;;;2.87;2.67;;;24.20;64.40;;;;;;5079427;28;20201;-66
2021/08/23 05:55:33;;;;;;;2.60;2.40;;;24.20;64.30;;;;;;5111680;28;20207;-66
2021/08/23 05:58:05;;;;;;;2.90;2.70;;;24.20;64.30;;;;;;5107598;28;20201;-66
2021/08/23 06:00:36;;;;;;;3.47;3.20;;;24.20;64.30;;;;;;5101795;27;20189;-66
2021/08/23 06:03:05;;;;;;;3.20;3.00;;;24.20;64.30;;;;;;5104474;28;20213;-65
2021/08/23 06:05:36;;;;;;;3.67;3.37;;;24.20;64.30;;;;;;5092351;28;20217;-65
2021/08/23 06:08:09;;;;;;;3.20;2.90;;;24.20;64.30;;;;;;5105134;28;20219;-67
2021/08/23 06:10:38;;;;;;;3.70;3.40;;;24.20;64.30;;;;;;5108226;28;20181;-66
2021/08/23 06:13:10;;;;;;;4.77;3.53;;;24.20;64.30;;;;;;5100542;28;20282;-67
2021/08/23 06:15:38;;;;;;;3.30;3.10;;;24.20;64.20;;;;;;5102417;28;20246;-67
2021/08/23 06:18:07;;;;;;;3.47;3.17;;;24.20;64.20;;;;;;5105739;28;20273;-67
2021/08/23 06:20:35;;;;;;;3.57;3.27;;;24.20;64.10;;;;;;5109593;28;20192;-65
2021/08/23 06:23:06;;;;;;;4.47;3.40;;;24.20;64.20;;;;;;5090415;28;20228;-67
2021/08/23 06:25:38;;;;;;;4.70;3.40;;;24.10;64.40;;;;;;5099982;28;20196;-66
2021/08/23 06:28:14;;;;;;;4.40;4.00;;;24.20;64.80;;;;;;5108151;28;20215;-66
2021/08/23 06:30:43;;;;;;;3.87;3.47;;;24.20;64.70;;;;;;5103374;28;20207;-65
2021/08/23 06:33:11;;;;;;;6.30;4.03;;;24.20;64.70;;;;;;5101988;28;20199;-66
2021/08/23 06:35:45;;;;;;;5.93;4.17;;;24.20;64.60;;;;;;5108997;28;20241;-66
2021/08/23 06:38:15;;;;;;;4.73;4.23;;;24.20;64.50;;;;;;5093343;28;20205;-66
2021/08/23 06:40:45;;;;;;;5.50;4.73;;;24.20;64.40;;;;;;5104653;28;20197;-65
2021/08/23 06:43:15;;;;;;;6.93;4.80;;;24.20;64.40;;;;;;5108179;28;20196;-65
2021/08/23 06:45:49;;;;;;;5.63;5.10;;;24.20;64.40;;;;;;5107363;28;20204;-66
2021/08/23 06:48:20;;;;;;;7.00;5.43;;;24.20;64.30;;;;;;5106585;28;21073;-66
2021/08/23 06:50:52;;;;;;;7.00;5.10;;;24.20;64.30;;;;;;5100733;28;20226;-66
2021/08/23 06:53:24;;;;;;;7.00;5.43;;;24.20;64.20;;;;;;5100031;28;20511;-66
2021/08/23 06:55:54;;;;;;;6.03;5.37;;;24.20;64.20;;;;;;5103364;28;20515;-65
2021/08/23 06:58:24;;;;;;;5.63;5.13;;;24.20;64.20;;;;;;5103043;28;20211;-65
2021/08/23 07:00:52;;;;;;;5.53;5.03;;;24.20;64.20;;;;;;5108606;28;20196;-65
2021/08/23 07:03:23;;;;;;;7.10;5.53;;;24.20;64.10;;;;;;5109699;28;20313;-66
2021/08/23 07:05:52;;;;;;;6.00;5.50;;;24.20;64.10;;;;;;5107912;28;20204;-66
2021/08/23 07:08:44;;;;;;;6.37;4.90;;;24.20;64.10;;;;;;5107911;28;20224;-66
2021/08/23 07:11:13;;;;;;;5.63;5.13;;;24.20;64.10;;;;;;5092152;28;20582;-66
2021/08/23 07:13:44;;;;;;;7.07;4.90;;;24.20;64.00;;;;;;5110495;28;20671;-66
2021/08/23 07:16:17;;;;;;;6.20;5.30;;;24.20;64.00;;;;;;5114596;27;20199;-66
2021/08/23 07:18:45;;;;;;;9.37;5.30;;;24.20;64.00;;;;;;5110645;28;20193;-66
2021/08/23 07:21:19;;;;;;;7.13;5.23;;;24.20;64.00;;;;;;5112652;28;20196;-65
2021/08/23 07:23:50;;;;;;;6.33;5.57;;;24.20;64.10;;;;;;5099841;28;20302;-64
2021/08/23 07:26:21;;;;;;;6.43;5.83;;;24.20;64.10;;;;;;5091599;28;20225;-64
2021/08/23 07:28:49;;;;;;;5.40;4.90;;;24.20;64.10;;;;;;5078599;28;20280;-65
2021/08/23 07:31:21;;;;;;;7.67;5.77;;;24.20;64.10;;;;;;5073121;28;20220;-68
2021/08/23 07:34:05;;;;;;;18.10;8.67;;;24.20;64.50;;;;;;5091973;28;20296;-69
2021/08/23 07:36:35;;;;;;;21.60;10.30;;;24.30;65.20;;;;;;5092904;28;20208;-70
2021/08/23 07:39:05;;;;;;;16.83;9.87;;;24.30;65.60;;;;;;5079625;28;20205;-67
2021/08/23 07:41:36;;;;;;;17.03;10.17;;;24.30;65.60;;;;;;5089094;28;20201;-69
2021/08/23 07:44:10;;;;;;;18.73;10.80;;;24.30;65.60;;;;;;5082345;28;20197;-67
2021/08/23 07:46:46;;;;;;;14.03;9.87;;;24.40;65.50;;;;;;5093332;28;20197;-67
2021/08/23 07:49:17;;;;;;;16.80;10.27;;;24.40;65.10;;;;;;5090291;28;20815;-67
2021/08/23 07:51:47;;;;;;;11.23;8.77;;;24.40;64.90;;;;;;5091784;28;20660;-67
2021/08/23 07:54:18;;;;;;;19.30;9.70;;;24.50;64.80;;;;;;5069893;28;20708;-68
2021/08/23 07:56:50;;;;;;;18.77;10.10;;;24.50;64.40;;;;;;5088287;28;20193;-69
2021/08/23 07:59:21;;;;;;;13.00;9.17;;;24.50;64.20;;;;;;5090438;28;20205;-69
2021/08/23 08:01:52;;;;;;;13.93;9.60;;;24.60;64.30;;;;;;5081256;28;20762;-70
2021/08/23 08:04:22;;;;;;;16.30;9.93;;;24.60;64.20;;;;;;5082506;28;20204;-68
2021/08/23 08:06:56;;;;;;;10.13;8.80;;;24.60;63.90;;;;;;5093569;28;20228;-68
2021/08/23 08:09:27;;;;;;;13.73;9.50;;;24.60;63.50;;;;;;5073478;28;20624;-68
2021/08/23 08:11:57;;;;;;;11.97;8.67;;;24.60;63.40;;;;;;5102941;28;20273;-67
2021/08/23 08:14:34;;;;;;;10.10;8.03;;;24.60;63.40;;;;;;5094316;28;20204;-69
2021/08/23 08:17:05;;;;;;;8.47;7.67;;;24.70;63.20;;;;;;5073341;28;20207;-70
2021/08/23 08:19:38;;;;;;;9.50;8.50;;;24.70;63.20;;;;;;5090195;28;20623;-67
2021/08/23 08:22:07;;;;;;;8.47;7.50;;;24.70;62.70;;;;;;5084604;28;20205;-69
2021/08/23 08:24:38;;;;;;;13.60;7.47;;;24.70;62.90;;;;;;5086560;28;20259;-67
2021/08/23 08:27:08;;;;;;;10.07;7.03;;;24.80;62.80;;;;;;5110577;28;20692;-67
2021/08/23 08:29:43;;;;;;;8.43;7.20;;;24.80;62.60;;;;;;5086362;28;20217;-67
2021/08/23 08:32:13;;;;;;;9.90;6.90;;;24.80;62.30;;;;;;5080665;28;20199;-67
2021/08/23 08:34:44;;;;;;;7.17;6.47;;;24.80;62.30;;;;;;5087432;28;20681;-67
2021/08/23 08:37:13;;;;;;;6.50;5.90;;;24.80;62.30;;;;;;5107981;28;20258;-66
2021/08/23 08:39:41;;;;;;;8.07;6.20;;;24.90;62.00;;;;;;5086964;28;20271;-67
2021/08/23 08:42:18;;;;;;;6.50;5.90;;;24.90;62.00;;;;;;5105648;28;20557;-67
2021/08/23 08:44:55;;;;;;;7.40;6.53;;;24.90;61.70;;;;;;5111198;28;20200;-69
2021/08/23 08:47:32;;;;;;;7.07;6.47;;;24.90;61.60;;;;;;5107568;28;20204;-66
2021/08/23 08:50:04;;;;;;;9.83;6.63;;;24.90;61.40;;;;;;5110573;28;20215;-65
2021/08/23 08:52:40;;;;;;;7.03;6.33;;;25.00;61.20;;;;;;5108748;28;20208;-65
2021/08/23 08:55:10;;;;;;;7.00;6.23;;;24.90;61.00;;;;;;5080766;28;20201;-65
2021/08/23 08:57:42;;;;;;;7.60;6.10;;;24.90;60.70;;;;;;5084424;28;20208;-66
2021/08/23 09:00:17;;;;;;;13.20;6.87;;;24.90;60.20;;;;;;5103518;28;20208;-65
2021/08/23 09:02:56;;;;;;;7.33;6.60;;;24.90;60.40;;;;;;5077812;28;20195;-65
2021/08/23 09:05:33;;;;;;;6.70;6.00;;;24.90;60.90;;;;;;5079817;28;20201;-65
2021/08/23 09:08:28;;;;;;;6.83;5.43;;;24.90;60.60;;;;;;5105085;28;20208;-65
2021/08/23 09:11:18;;;;;;;5.80;5.20;;;24.90;61.00;;;;;;5103204;28;20192;-65
2021/08/23 09:13:59;;;;;;;6.53;5.30;;;25.00;60.70;;;;;;5091183;28;20192;-66
2021/08/23 09:16:32;;;;;;;5.97;5.40;;;25.00;60.50;;;;;;5066039;28;20211;-68
2021/08/23 09:19:05;;;;;;;5.97;5.47;;;25.00;60.20;;;;;;5073898;28;20200;-69
2021/08/23 09:21:39;;;;;;;6.40;5.10;;;24.90;60.00;;;;;;5105281;28;20208;-68
2021/08/23 09:24:20;;;;;;;5.40;4.90;;;24.90;60.10;;;;;;5073944;28;20284;-69
2021/08/23 09:27:00;;;;;;;5.00;4.50;;;24.90;60.00;;;;;;5087813;28;20184;-66
2021/08/23 09:30:00;;;;;;;4.80;4.40;;;24.90;60.00;;;;;;5105169;27;20208;-66
2021/08/23 09:32:58;;;;;;;6.10;4.53;;;24.90;60.00;;;;;;5091679;28;20684;-68
2021/08/23 09:35:35;;;;;;;5.17;3.80;;;24.90;60.10;;;;;;5104684;28;20735;-69
2021/08/23 09:38:17;;;;;;;8.83;4.10;;;24.90;60.00;;;;;;5074359;28;20559;-69
2021/08/23 09:40:51;;;;;;;3.93;3.53;;;24.90;59.70;;;;;;5108327;28;20204;-69
2021/08/23 09:43:30;;;;;;;4.70;4.20;;;25.00;59.70;;;;;;5124971;27;20220;-71
2021/08/23 09:46:23;;;;;;;4.83;3.23;;;25.00;59.90;;;;;;5085831;28;20188;-69
2021/08/23 09:48:54;;;;;;;4.20;3.60;;;25.00;59.80;;;;;;5083685;28;20209;-70
2021/08/23 09:51:26;;;;;;;4.03;3.63;;;25.00;59.80;;;;;;5101186;27;20566;-73
2021/08/23 09:54:16;;;;;;;3.77;3.37;;;25.00;59.50;;;;;;5081407;28;20750;-71
2021/08/23 09:56:53;;;;;;;3.77;3.47;;;25.00;59.20;;;;;;5075203;28;20199;-69
2021/08/23 09:59:35;;;;;;;4.67;3.57;;;25.00;59.30;;;;;;5089317;28;20195;-70
2021/08/23 10:02:09;;;;;;;5.30;3.47;;;25.10;59.40;;;;;;5080959;28;20231;-67
2021/08/23 10:04:38;;;;;;;6.83;3.90;;;25.10;59.50;;;;;;5069135;28;20213;-68
2021/08/23 10:07:12;;;;;;;4.43;4.03;;;25.10;59.40;;;;;;5101166;27;20537;-68
2021/08/23 10:09:43;;;;;;;4.33;3.93;;;25.10;59.10;;;;;;5105562;28;20213;-69
2021/08/23 10:12:16;;;;;;;7.10;4.43;;;25.20;59.30;;;;;;5082688;28;20215;-69
2021/08/23 10:14:46;;;;;;;4.03;3.63;;;25.10;59.10;;;;;;5106313;28;20205;-68
2021/08/23 10:17:17;;;;;;;5.23;4.13;;;25.20;59.20;;;;;;5085080;28;20205;-68
2021/08/23 10:19:49;;;;;;;4.33;3.67;;;25.20;59.00;;;;;;5104319;28;20196;-68
2021/08/23 10:22:19;;;;;;;4.73;3.77;;;25.20;59.00;;;;;;5064118;28;20204;-69
2021/08/23 10:24:50;;;;;;;4.07;3.67;;;25.20;59.10;;;;;;5099166;28;20232;-68
2021/08/23 10:27:33;;;;;;;5.00;4.20;;;25.30;58.90;;;;;;5088420;28;20211;-69
2021/08/23 10:30:20;;;;;;;4.70;3.93;;;25.20;58.40;;;;;;5086244;28;20219;-69
2021/08/23 10:32:52;;;;;;;6.03;4.93;;;25.20;58.40;;;;;;5087633;28;20208;-66
2021/08/23 10:35:43;;;;;;;7.70;4.90;;;25.10;58.00;;;;;;5089501;28;20291;-69
2021/08/23 10:38:34;;;;;;;5.80;4.50;;;25.00;58.00;;;;;;5103828;28;20524;-69
2021/08/23 10:41:24;;;;;;;6.13;4.27;;;25.00;58.30;;;;;;5102058;28;20237;-66
2021/08/23 10:43:57;;;;;;;4.43;3.70;;;25.00;58.50;;;;;;5106704;28;20196;-65
2021/08/23 10:46:39;;;;;;;4.47;3.30;;;25.00;58.80;;;;;;5089076;28;20203;-65
2021/08/23 10:49:13;;;;;;;5.07;4.57;;;25.00;59.10;;;;;;5103773;28;20668;-66
2021/08/23 10:52:03;;;;;;;8.90;4.20;;;25.00;58.60;;;;;;5108635;28;20196;-69
2021/08/23 10:54:42;;;;;;;5.67;4.47;;;25.00;59.10;;;;;;5108945;28;20207;-68
2021/08/23 10:57:21;;;;;;;6.33;3.83;;;25.00;59.00;;;;;;5085849;28;20203;-67
2021/08/23 11:00:08;;;;;;;4.70;4.00;;;25.00;59.30;;;;;;5106649;27;20236;-66
2021/08/23 11:02:43;;;;;;;5.70;4.10;;;25.10;59.50;;;;;;5088429;28;20197;-68
2021/08/23 11:05:21;;;;;;;5.13;4.53;;;25.10;59.20;;;;;;5106831;28;20226;-69
2021/08/23 11:08:07;;;;;;;6.67;4.60;;;25.10;59.30;;;;;;5084070;28;20629;-70
2021/08/23 11:11:03;;;;;;;5.90;4.67;;;25.20;59.20;;;;;;5085716;28;20200;-68
2021/08/23 11:13:42;;;;;;;6.13;4.73;;;25.20;59.30;;;;;;5107035;27;20187;-69
2021/08/23 11:16:12;;;;;;;4.90;4.00;;;25.20;59.20;;;;;;5106649;28;20233;-67
2021/08/23 11:18:42;;;;;;;6.20;3.77;;;25.20;59.40;;;;;;5099784;28;20212;-67
2021/08/23 11:21:17;;;;;;;4.97;4.40;;;25.30;59.50;;;;;;5108305;27;20200;-67
2021/08/23 11:23:49;;;;;;;4.47;3.33;;;25.30;59.40;;;;;;5115666;27;20692;-66
2021/08/23 11:26:22;;;;;;;3.47;2.80;;;25.30;59.70;;;;;;5085907;28;20287;-66
2021/08/23 11:28:51;;;;;;;5.80;3.30;;;25.40;59.80;;;;;;5086990;28;20302;-66
2021/08/23 11:31:34;;;;;;;4.63;3.53;;;25.40;59.90;;;;;;5105513;28;20271;-66
2021/08/23 11:34:07;;;;;;;6.30;4.13;;;25.40;59.90;;;;;;5100871;27;20207;-66
2021/08/23 11:36:39;;;;;;;7.97;4.23;;;25.40;59.20;;;;;;5090598;27;20207;-66
2021/08/23 11:39:15;;;;;;;7.87;3.80;;;25.50;59.10;;;;;;5105848;28;20644;-66
2021/08/23 11:42:00;;;;;;;6.50;3.50;;;25.40;58.80;;;;;;5092315;28;20705;-66
2021/08/23 11:44:38;;;;;;;8.83;3.90;;;25.50;58.90;;;;;;5110600;27;20616;-67
2021/08/23 11:47:08;;;;;;;8.17;3.90;;;25.60;59.60;;;;;;5086917;28;20258;-65
2021/08/23 11:49:40;;;;;;;3.83;3.27;;;25.50;59.10;;;;;;5086184;28;20208;-66
2021/08/23 11:52:17;;;;;;;5.60;3.87;;;25.60;59.10;;;;;;5108738;27;20195;-65
2021/08/23 11:54:51;;;;;;;5.97;3.97;;;25.60;58.90;;;;;;5084774;28;20810;-68
2021/08/23 11:57:35;;;;;;;6.20;4.10;;;25.60;58.90;;;;;;5092964;28;20196;-69
2021/08/23 12:00:10;;;;;;;7.23;3.40;;;25.60;58.80;;;;;;5103818;27;20192;-69
2021/08/23 12:02:40;;;;;;;5.87;4.23;;;25.60;58.90;;;;;;5082422;28;20208;-70
2021/08/23 12:05:18;;;;;;;4.93;3.67;;;25.60;58.60;;;;;;5107289;27;20197;-68
2021/08/23 12:07:51;;;;;;;3.63;3.27;;;25.70;58.80;;;;;;5107307;27;20220;-68
2021/08/23 12:10:49;;;;;;;4.30;3.67;;;25.70;59.00;;;;;;5106004;27;20660;-69
2021/08/23 12:13:40;;;;;;;3.73;3.33;;;25.70;58.40;;;;;;5103977;28;20262;-71
2021/08/23 12:16:35;;;;;;;5.40;3.47;;;25.70;58.40;;;;;;5098362;27;20752;-69
2021/08/23 12:19:12;;;;;;;3.97;3.47;;;25.70;58.60;;;;;;5090430;27;20699;-70
2021/08/23 12:21:46;;;;;;;3.97;3.37;;;25.70;58.30;;;;;;5107290;27;20793;-70
2021/08/23 12:24:21;;;;;;;4.60;3.73;;;25.70;58.60;;;;;;5090522;28;20231;-69
2021/08/23 12:27:00;;;;;;;5.40;4.30;;;25.80;58.70;;;;;;5097654;28;20861;-69
2021/08/23 12:29:41;;;;;;;4.10;3.67;;;25.80;58.10;;;;;;5082874;28;20568;-67
2021/08/23 12:32:16;;;;;;;5.00;3.40;;;25.80;58.30;;;;;;5099090;28;20200;-67
2021/08/23 12:34:51;;;;;;;4.10;3.37;;;25.90;58.60;;;;;;5107212;28;20270;-66
2021/08/23 12:37:30;;;;;;;4.07;3.10;;;25.90;58.80;;;;;;5097025;28;20192;-69
2021/08/23 12:39:59;;;;;;;8.10;3.70;;;25.90;58.90;;;;;;5099535;28;20426;-67
2021/08/23 12:42:31;;;;;;;5.37;3.30;;;26.00;58.80;;;;;;5101821;28;20645;-69
2021/08/23 12:45:07;;;;;;;9.67;3.97;;;26.00;58.60;;;;;;5102825;28;20201;-69
2021/08/23 12:47:38;;;;;;;6.57;3.03;;;26.00;58.60;;;;;;5065798;28;20252;-67
2021/08/23 12:50:14;;;;;;;7.13;3.20;;;26.00;58.80;;;;;;5105192;28;20212;-69
2021/08/23 12:52:47;;;;;;;5.17;2.90;;;26.00;58.60;;;;;;5104413;28;20645;-71
2021/08/23 12:55:15;;;;;;;3.67;2.80;;;26.00;58.80;;;;;;5075473;28;20212;-68
2021/08/23 12:57:45;;;;;;;3.93;3.00;;;26.00;58.50;;;;;;5088926;28;20202;-68
2021/08/23 13:00:16;;;;;;;3.53;3.07;;;26.10;58.30;;;;;;5099186;28;20200;-69
2021/08/23 13:02:47;;;;;;;4.57;3.30;;;26.10;58.30;;;;;;5086790;28;20200;-72
2021/08/23 13:05:17;;;;;;;4.40;3.10;;;26.10;58.10;;;;;;5105105;28;20193;-69
2021/08/23 13:07:47;;;;;;;3.63;2.80;;;26.10;58.10;;;;;;5083335;28;20698;-69
2021/08/23 13:10:20;;;;;;;4.10;2.93;;;26.10;57.90;;;;;;5101491;28;20232;-72
2021/08/23 13:12:50;;;;;;;3.33;2.93;;;26.20;57.80;;;;;;5104112;28;20518;-72
2021/08/23 13:15:19;;;;;;;4.03;2.80;;;26.20;57.70;;;;;;5087110;28;20257;-72
2021/08/23 13:17:49;;;;;;;3.00;2.53;;;26.20;57.80;;;;;;5104318;28;20655;-74
2021/08/23 13:20:21;;;;;;;3.73;2.87;;;26.20;57.60;;;;;;5075620;28;20205;-70
2021/08/23 13:23:02;;;;;;;5.13;3.00;;;26.30;57.70;;;;;;5086954;28;20212;-70